Terminal Aerodrome Forecast
Issued by NWS

Home | Current Version | Previous Version | Text Only | Print | Product List | Glossary On
Versions: 1 2 3 4 5 6 7 8 9 10 11 12 13 14 15 16 17 18 19 20 21 22 23 24 25
000
FTUS41 KGYX 211720
TAFAUG
TAF
KAUG 211720Z 2118/2218 19008G15KT P6SM FEW250
     FM212300 21004KT P6SM SCT250
     FM221200 VRB05KT P6SM BKN050 PROB30 2214/2218 4SM -RA BKN005=

USA.gov is the U.S. government's official web portal to all federal, state and local government web resources and services.